createdAt,value
2017-11-13T00:00:29.044Z,87.60
2017-11-13T00:02:57.170Z,87.90
2017-11-13T00:05:25.338Z,87.70
2017-11-13T00:07:53.477Z,87.80
2017-11-13T00:10:22.550Z,87.60
2017-11-13T00:12:51.439Z,87.90
2017-11-13T00:15:20.423Z,88.10
2017-11-13T00:17:49.316Z,88.40
2017-11-13T00:20:18.202Z,88.50
2017-11-13T00:22:47.127Z,87.70
2017-11-13T00:25:15.251Z,87.60
2017-11-13T00:27:43.402Z,87.70
2017-11-13T00:30:11.531Z,87.70
2017-11-13T00:32:39.785Z,88.00
2017-11-13T00:35:08.689Z,87.50
2017-11-13T00:37:37.603Z,88.00
2017-11-13T00:40:05.742Z,88.00
2017-11-13T00:42:34.642Z,87.60
2017-11-13T00:45:03.577Z,87.90
2017-11-13T00:47:31.690Z,87.90
2017-11-13T00:50:00.713Z,88.50
2017-11-13T00:52:28.846Z,87.90
2017-11-13T00:54:57.017Z,87.80
2017-11-13T00:57:25.143Z,87.70
2017-11-13T00:59:54.039Z,87.40
2017-11-13T01:02:22.196Z,87.40
2017-11-13T01:04:50.321Z,87.10
2017-11-13T01:07:18.588Z,87.10
2017-11-13T01:09:46.728Z,87.20
2017-11-13T01:12:14.891Z,87.30
2017-11-13T01:14:43.006Z,87.60
2017-11-13T01:17:11.132Z,87.30
2017-11-13T01:19:39.293Z,87.10
2017-11-13T01:22:08.181Z,87.40
2017-11-13T01:24:37.079Z,87.00
2017-11-13T01:27:05.242Z,87.00
2017-11-13T01:29:34.141Z,86.80
2017-11-13T01:32:03.059Z,86.90
2017-11-13T01:34:31.181Z,86.80
2017-11-13T01:36:59.331Z,86.90
2017-11-13T01:39:27.485Z,87.50
2017-11-13T01:41:55.611Z,87.10
2017-11-13T01:44:24.655Z,87.10
2017-11-13T01:46:52.773Z,87.00
2017-11-13T01:49:20.965Z,87.10
2017-11-13T01:51:49.855Z,86.90
2017-11-13T01:54:18.800Z,86.90
2017-11-13T01:56:46.918Z,86.90
2017-11-13T01:59:15.814Z,86.80
2017-11-13T02:01:44.122Z,86.90
2017-11-13T02:04:12.254Z,86.60
2017-11-13T02:06:41.140Z,86.40
2017-11-13T02:09:10.123Z,86.50
2017-11-13T02:11:38.262Z,86.40
2017-11-13T02:14:06.386Z,86.40
2017-11-13T02:16:35.309Z,85.90
2017-11-13T02:19:03.594Z,85.80
2017-11-13T02:21:31.730Z,85.40
2017-11-13T02:24:00.651Z,86.30
2017-11-13T02:26:28.781Z,86.20
2017-11-13T02:28:56.947Z,86.30
2017-11-13T02:31:25.069Z,86.50
2017-11-13T02:33:53.355Z,86.30
2017-11-13T02:36:21.489Z,86.30
2017-11-13T02:38:50.394Z,86.40
2017-11-13T02:41:18.554Z,86.40
2017-11-13T02:43:47.447Z,86.30
2017-11-13T02:46:15.598Z,86.30
2017-11-13T02:48:43.734Z,86.00
2017-11-13T02:51:12.027Z,86.00
2017-11-13T02:53:40.151Z,86.10
2017-11-13T02:56:08.294Z,86.10
2017-11-13T02:58:36.475Z,86.00
2017-11-13T03:01:05.365Z,85.60
2017-11-13T03:03:34.259Z,85.50
2017-11-13T03:06:03.170Z,85.70
2017-11-13T03:08:31.301Z,85.70
2017-11-13T03:10:59.559Z,85.40
2017-11-13T03:13:27.683Z,86.00
2017-11-13T03:15:56.614Z,85.70
2017-11-13T03:18:24.742Z,85.80
2017-11-13T03:20:53.687Z,85.30
2017-11-13T03:23:21.819Z,85.30
2017-11-13T03:25:49.951Z,85.10
2017-11-13T03:28:18.237Z,85.60
2017-11-13T03:30:46.365Z,85.30
2017-11-13T03:33:14.521Z,85.60
2017-11-13T03:35:42.679Z,85.50
2017-11-13T03:38:10.818Z,85.60
2017-11-13T03:40:38.967Z,85.70
2017-11-13T03:43:07.090Z,85.90
2017-11-13T03:45:36.115Z,86.60
2017-11-13T03:48:04.269Z,86.60
2017-11-13T03:50:33.207Z,86.80
2017-11-13T03:53:01.415Z,86.80
2017-11-13T03:55:30.362Z,86.40
2017-11-13T03:57:58.509Z,86.50
2017-11-13T04:00:26.812Z,86.50
2017-11-13T04:02:54.952Z,87.00
2017-11-13T04:05:23.080Z,87.40
2017-11-13T04:07:51.342Z,87.30
2017-11-13T04:10:19.486Z,87.10
2017-11-13T04:12:47.662Z,87.30
2017-11-13T04:15:15.793Z,87.20
2017-11-13T04:17:44.834Z,87.80
2017-11-13T04:20:12.990Z,87.70
2017-11-13T04:22:41.125Z,87.50
2017-11-13T04:25:09.273Z,87.40
2017-11-13T04:27:37.429Z,88.00
2017-11-13T04:30:05.562Z,87.80
2017-11-13T04:32:34.483Z,87.90
2017-11-13T04:35:03.374Z,87.90
2017-11-13T04:37:31.640Z,87.90
2017-11-13T04:39:59.769Z,88.20
2017-11-13T04:42:27.983Z,88.30
2017-11-13T04:44:56.118Z,88.10
2017-11-13T04:47:24.242Z,88.10
2017-11-13T04:49:52.405Z,88.30
2017-11-13T04:52:20.557Z,88.40
2017-11-13T04:54:48.729Z,88.50
2017-11-13T04:57:17.626Z,88.50
2017-11-13T04:59:46.527Z,89.10
2017-11-13T05:02:15.459Z,89.30
2017-11-13T05:04:43.613Z,89.30
2017-11-13T05:07:11.750Z,89.40
2017-11-13T05:09:40.653Z,89.40
2017-11-13T05:12:08.805Z,89.30
2017-11-13T05:14:37.704Z,89.70
2017-11-13T05:17:06.769Z,89.50
2017-11-13T05:19:34.898Z,89.50
2017-11-13T05:22:03.067Z,90.20
2017-11-13T05:24:31.979Z,89.60
2017-11-13T05:27:00.121Z,89.60
2017-11-13T05:29:28.318Z,89.50
2017-11-13T05:31:56.458Z,89.40
2017-11-13T05:34:25.513Z,89.20
2017-11-13T05:36:53.678Z,89.20
2017-11-13T05:42:25.341Z,89.30
2017-11-13T05:44:53.494Z,89.00
2017-11-13T05:47:21.770Z,88.80
2017-11-13T05:49:49.903Z,89.20
2017-11-13T05:52:18.084Z,89.70
2017-11-13T05:54:46.207Z,89.20
2017-11-13T05:57:15.145Z,89.10
2017-11-13T05:59:48.050Z,89.10
2017-11-13T06:02:17.776Z,89.00
2017-11-13T06:04:48.063Z,88.90
2017-11-13T06:07:18.822Z,88.70
2017-11-13T06:10:00.560Z,89.00
2017-11-13T06:12:28.681Z,88.90
2017-11-13T06:15:05.105Z,89.20
2017-11-13T06:17:40.828Z,89.10
2017-11-13T06:20:09.001Z,89.30
2017-11-13T06:22:37.139Z,89.70
2017-11-13T06:25:06.043Z,89.90
2017-11-13T06:27:35.074Z,89.80
2017-11-13T06:30:03.221Z,89.70
2017-11-13T06:32:31.376Z,89.70
2017-11-13T06:35:00.285Z,89.70
2017-11-13T06:37:28.455Z,89.70
2017-11-13T06:39:56.601Z,90.00
2017-11-13T06:42:24.734Z,89.90
2017-11-13T06:44:53.005Z,90.10
2017-11-13T06:47:21.137Z,90.10
2017-11-13T06:49:50.071Z,90.00
2017-11-13T06:52:18.202Z,90.00
2017-11-13T06:54:47.142Z,89.70
2017-11-13T06:57:15.266Z,89.70
2017-11-13T06:59:44.167Z,89.60
2017-11-13T07:02:12.449Z,89.70
2017-11-13T07:04:40.575Z,89.70
2017-11-13T07:07:08.703Z,90.00
2017-11-13T07:09:36.854Z,89.90
2017-11-13T07:12:04.985Z,89.90
2017-11-13T07:14:33.164Z,90.00
2017-11-13T07:17:01.303Z,90.10
2017-11-13T07:19:29.434Z,89.90
2017-11-13T07:21:58.495Z,90.00
2017-11-13T07:24:26.629Z,90.00
2017-11-13T07:26:54.799Z,90.20
2017-11-13T07:29:22.969Z,90.00
2017-11-13T07:31:51.135Z,90.00
2017-11-13T07:34:19.262Z,90.00
2017-11-13T07:36:47.404Z,89.80
2017-11-13T07:39:15.681Z,89.70
2017-11-13T07:41:43.834Z,89.80
2017-11-13T07:44:11.977Z,89.90
2017-11-13T07:46:40.132Z,90.00
2017-11-13T07:49:08.274Z,90.00
2017-11-13T07:51:36.438Z,90.00
2017-11-13T07:54:04.619Z,90.00
2017-11-13T07:56:32.749Z,90.00
2017-11-13T07:59:00.881Z,89.70
2017-11-13T08:01:29.170Z,90.00
2017-11-13T08:03:58.115Z,89.40
2017-11-13T08:06:26.252Z,89.30
2017-11-13T08:08:54.419Z,89.30
2017-11-13T08:11:22.589Z,89.30
2017-11-13T08:13:50.730Z,89.10
2017-11-13T08:16:19.006Z,89.00
2017-11-13T08:18:47.175Z,89.10
2017-11-13T08:21:15.312Z,88.70
2017-11-13T08:23:44.249Z,89.00
2017-11-13T08:26:12.376Z,89.00
2017-11-13T08:28:41.282Z,88.60
2017-11-13T08:31:09.569Z,88.60
2017-11-13T08:33:37.703Z,88.20
2017-11-13T08:36:05.874Z,87.10
2017-11-13T08:38:34.002Z,87.70
2017-11-13T08:41:02.133Z,88.10
2017-11-13T08:43:30.296Z,88.00
2017-11-13T08:45:58.443Z,88.00
2017-11-13T08:48:26.737Z,87.70
2017-11-13T08:50:54.867Z,87.90
2017-11-13T08:53:23.062Z,87.70
2017-11-13T08:55:51.193Z,87.90
2017-11-13T08:58:19.357Z,87.80
2017-11-13T09:00:48.260Z,88.10
2017-11-13T09:03:16.430Z,88.10
2017-11-13T09:05:44.554Z,87.90
2017-11-13T09:08:12.692Z,88.30
2017-11-13T09:10:40.975Z,88.50
2017-11-13T09:13:09.106Z,88.60
2017-11-13T09:15:38.040Z,89.00
2017-11-13T09:18:06.185Z,89.10
2017-11-13T09:20:35.080Z,89.20
2017-11-13T09:23:03.255Z,89.20
2017-11-13T09:25:32.157Z,88.80
2017-11-13T09:28:00.421Z,88.70
2017-11-13T09:30:28.562Z,88.70
2017-11-13T09:32:56.730Z,89.70
2017-11-13T09:35:24.878Z,89.30
2017-11-13T09:37:53.012Z,89.70
2017-11-13T09:40:23.953Z,88.30
2017-11-13T09:42:52.196Z,88.30
2017-11-13T09:45:20.445Z,88.20
2017-11-13T09:47:48.610Z,88.30
2017-11-13T09:50:16.783Z,88.50
2017-11-13T09:52:45.209Z,88.40
2017-11-13T09:55:14.753Z,87.60
2017-11-13T09:57:43.023Z,87.60
2017-11-13T10:00:11.259Z,88.40
2017-11-13T10:02:39.649Z,87.70
2017-11-13T10:05:08.650Z,87.40
2017-11-13T10:07:37.645Z,86.90
2017-11-13T10:10:06.691Z,87.00
2017-11-13T10:12:34.885Z,87.00
2017-11-13T10:15:04.022Z,88.00
2017-11-13T10:17:32.395Z,87.20
2017-11-13T10:20:01.553Z,88.00
2017-11-13T10:22:29.765Z,87.90
2017-11-13T10:24:58.771Z,86.90
2017-11-13T10:27:26.946Z,86.90
2017-11-13T10:29:55.129Z,86.70
2017-11-13T10:32:23.474Z,86.90
2017-11-13T10:34:52.482Z,87.80
2017-11-13T10:37:20.646Z,87.90
2017-11-13T10:39:49.640Z,88.90
2017-11-13T10:42:18.570Z,88.50
2017-11-13T10:44:46.768Z,88.50
2017-11-13T10:47:14.931Z,88.60
2017-11-13T10:49:43.205Z,89.00
2017-11-13T10:52:11.412Z,87.60
2017-11-13T10:54:39.596Z,87.60
2017-11-13T10:57:08.683Z,86.70
2017-11-13T10:59:36.874Z,86.70
2017-11-13T11:02:05.958Z,86.70
2017-11-13T11:04:34.910Z,88.10
2017-11-13T11:07:03.095Z,87.40
2017-11-13T11:09:31.285Z,87.50
2017-11-13T11:11:59.460Z,86.40
2017-11-13T11:14:27.657Z,85.70
2017-11-13T11:16:56.593Z,86.40
2017-11-13T11:19:24.829Z,86.40
2017-11-13T11:21:53.764Z,87.70
2017-11-13T11:24:21.958Z,87.80
2017-11-13T11:26:50.142Z,88.10
2017-11-13T11:29:18.344Z,88.90
2017-11-13T11:31:47.331Z,89.20
2017-11-13T11:34:15.657Z,89.20
2017-11-13T11:36:43.830Z,88.20
2017-11-13T11:39:12.036Z,88.10
2017-11-13T11:41:40.215Z,88.90
2017-11-13T11:44:08.411Z,89.50
2017-11-13T11:46:37.398Z,90.00
2017-11-13T11:49:06.363Z,89.90
2017-11-13T11:51:34.661Z,89.90
2017-11-13T11:54:03.626Z,90.20
2017-11-13T11:56:31.824Z,90.20
2017-11-13T11:59:00.772Z,90.10
2017-11-13T12:01:28.980Z,90.10
2017-11-13T12:03:57.153Z,88.80
2017-11-13T12:06:25.386Z,88.60
2017-11-13T12:08:53.627Z,88.90
2017-11-13T12:11:22.572Z,87.50
2017-11-13T12:13:50.749Z,87.50
2017-11-13T12:16:18.931Z,87.80
2017-11-13T12:18:47.107Z,87.50
2017-11-13T12:21:15.552Z,87.50
2017-11-13T12:23:43.783Z,85.60
2017-11-13T12:26:12.094Z,86.30
2017-11-13T12:28:40.258Z,86.20
2017-11-13T12:31:08.465Z,85.80
2017-11-13T12:33:36.688Z,85.90
2017-11-13T12:36:05.631Z,85.20
2017-11-13T12:38:33.833Z,85.20
2017-11-13T12:41:02.011Z,85.60
2017-11-13T12:43:30.246Z,85.20
2017-11-13T12:45:58.422Z,84.20
2017-11-13T12:48:26.641Z,85.10
2017-11-13T12:50:54.812Z,83.10
2017-11-13T12:53:22.974Z,82.80
2017-11-13T12:55:51.216Z,82.10
2017-11-13T12:58:19.384Z,82.30
2017-11-13T13:00:48.373Z,81.90
2017-11-13T13:03:16.553Z,81.90
2017-11-13T13:05:44.751Z,81.70
2017-11-13T13:08:12.926Z,79.80
2017-11-13T13:10:41.118Z,80.50
2017-11-13T13:13:09.324Z,79.60
2017-11-13T13:15:38.262Z,77.80
2017-11-13T13:18:06.550Z,77.70
2017-11-13T13:20:34.726Z,79.40
2017-11-13T13:23:02.917Z,78.40
2017-11-13T13:25:31.108Z,79.00
2017-11-13T13:28:00.049Z,79.80
2017-11-13T13:30:28.273Z,79.80
2017-11-13T13:32:57.258Z,81.30
2017-11-13T13:35:25.585Z,81.30
2017-11-13T13:37:53.762Z,81.00
2017-11-13T13:40:21.934Z,81.50
2017-11-13T13:42:50.121Z,80.80
2017-11-13T13:45:18.350Z,81.10
2017-11-13T13:47:46.565Z,80.90
2017-11-13T13:50:14.794Z,80.40
2017-11-13T13:52:43.149Z,79.80
2017-11-13T13:55:11.379Z,80.10
2017-11-13T13:57:39.565Z,78.40
2017-11-13T14:00:07.762Z,77.70
2017-11-13T14:02:35.929Z,79.40
2017-11-13T14:05:04.133Z,80.00
2017-11-13T14:07:33.126Z,79.40
2017-11-13T14:10:01.326Z,79.40
2017-11-13T14:12:29.544Z,80.00
2017-11-13T14:14:57.733Z,79.90
2017-11-13T14:17:25.964Z,79.10
2017-11-13T14:19:54.115Z,79.20
2017-11-13T14:22:22.318Z,77.30
2017-11-13T14:24:50.537Z,77.70
2017-11-13T14:27:19.608Z,78.30
2017-11-13T14:29:47.773Z,78.20
2017-11-13T14:32:15.937Z,78.50
2017-11-13T14:34:44.190Z,79.30
2017-11-13T14:37:12.367Z,80.00
2017-11-13T14:39:40.589Z,80.10
2017-11-13T14:42:08.765Z,81.00
2017-11-13T14:44:36.950Z,82.00
2017-11-13T14:47:05.309Z,82.00
2017-11-13T14:49:33.482Z,82.70
2017-11-13T14:52:01.685Z,82.60
2017-11-13T14:54:30.686Z,82.30
2017-11-13T14:56:58.902Z,82.40
2017-11-13T14:59:27.871Z,82.90
2017-11-13T15:01:56.049Z,82.90
2017-11-13T15:04:24.340Z,81.90
2017-11-13T15:06:52.512Z,82.10
2017-11-13T15:09:20.695Z,81.30
2017-11-13T15:11:48.821Z,81.60
2017-11-13T15:14:17.714Z,81.10
2017-11-13T15:16:46.638Z,80.70
2017-11-13T15:19:14.784Z,80.70
2017-11-13T15:21:43.821Z,81.30
2017-11-13T15:24:11.965Z,81.30
2017-11-13T15:26:40.166Z,81.60
2017-11-13T15:29:08.293Z,81.50
2017-11-13T15:31:36.443Z,81.40
2017-11-13T15:34:04.594Z,81.40
2017-11-13T15:36:32.714Z,81.60
2017-11-13T15:39:00.982Z,81.70
2017-11-13T15:41:29.878Z,82.10
2017-11-13T15:43:58.817Z,82.10
2017-11-13T15:46:26.941Z,82.10
2017-11-13T15:48:55.097Z,82.20
2017-11-13T15:51:23.269Z,82.50
2017-11-13T15:53:51.397Z,82.70
2017-11-13T15:56:19.605Z,82.40
2017-11-13T15:58:47.755Z,83.30
2017-11-13T16:01:15.895Z,83.40
2017-11-13T16:03:44.086Z,83.10
2017-11-13T16:06:12.988Z,83.40
2017-11-13T16:08:41.138Z,83.40
2017-11-13T16:11:09.300Z,83.60
2017-11-13T16:13:38.257Z,83.60
2017-11-13T16:16:06.389Z,83.50
2017-11-13T16:18:34.553Z,83.60
2017-11-13T16:21:02.739Z,83.70
2017-11-13T16:23:30.871Z,83.60
2017-11-13T16:25:59.789Z,83.80
2017-11-13T16:28:27.935Z,83.80
2017-11-13T16:30:57.019Z,83.40
2017-11-13T16:33:25.950Z,84.10
2017-11-13T16:35:54.089Z,83.20
2017-11-13T16:38:22.248Z,83.20
2017-11-13T16:40:50.386Z,83.20
2017-11-13T16:43:18.542Z,83.10
2017-11-13T16:45:46.672Z,82.90
2017-11-13T16:48:14.967Z,82.80
2017-11-13T16:50:43.873Z,82.40
2017-11-13T16:53:12.014Z,82.40
2017-11-13T16:55:40.974Z,82.60
2017-11-13T16:58:09.116Z,82.60
2017-11-13T17:00:37.250Z,82.90
2017-11-13T17:03:05.494Z,82.60
2017-11-13T17:05:34.586Z,82.50
2017-11-13T17:08:02.880Z,82.80
2017-11-13T17:10:31.052Z,82.90
2017-11-13T17:12:59.220Z,82.90
2017-11-13T17:15:27.365Z,82.80
2017-11-13T17:17:55.526Z,82.90
2017-11-13T17:20:23.669Z,82.70
2017-11-13T17:22:52.598Z,83.30
2017-11-13T17:25:20.735Z,83.20
2017-11-13T17:27:48.881Z,83.20
2017-11-13T17:30:17.046Z,83.70
2017-11-13T17:32:45.188Z,83.70
2017-11-13T17:35:13.381Z,83.70
2017-11-13T17:37:41.509Z,84.10
2017-11-13T17:40:10.469Z,84.10
2017-11-13T17:42:38.603Z,84.10
2017-11-13T17:45:06.784Z,83.80
2017-11-13T17:47:34.948Z,83.30
2017-11-13T17:50:03.112Z,83.10
2017-11-13T17:52:31.243Z,83.40
2017-11-13T17:54:59.528Z,83.30
2017-11-13T17:57:27.671Z,83.30
2017-11-13T17:59:55.858Z,83.30
2017-11-13T18:02:24.045Z,82.80
2017-11-13T18:04:52.209Z,83.30
2017-11-13T18:07:20.344Z,83.20
2017-11-13T18:09:48.550Z,83.50
2017-11-13T18:12:16.716Z,83.40
2017-11-13T18:14:44.863Z,83.80
2017-11-13T18:17:13.185Z,83.70
2017-11-13T18:19:41.314Z,83.70
2017-11-13T18:22:09.517Z,83.70
2017-11-13T18:24:37.667Z,83.40
2017-11-13T18:27:06.637Z,82.80
2017-11-13T18:29:35.572Z,82.80
2017-11-13T18:32:13.529Z,82.80
2017-11-13T18:34:49.883Z,82.70
2017-11-13T18:37:26.795Z,82.40
2017-11-13T18:39:55.080Z,82.40
2017-11-13T18:42:23.220Z,82.20
2017-11-13T18:44:51.418Z,82.10
2017-11-13T18:47:19.551Z,81.80
2017-11-13T18:49:48.708Z,82.40
2017-11-13T18:52:16.840Z,82.40
2017-11-13T18:54:45.006Z,82.50
2017-11-13T18:57:24.580Z,82.50
2017-11-13T18:59:53.027Z,82.50
2017-11-13T19:02:21.225Z,82.50
2017-11-13T19:04:49.601Z,82.20
2017-11-13T19:07:17.775Z,82.40
2017-11-13T19:09:46.006Z,82.20
2017-11-13T19:12:14.146Z,82.40
2017-11-13T19:14:42.314Z,82.60
2017-11-13T19:17:10.451Z,83.00
2017-11-13T19:19:39.403Z,82.80
2017-11-13T19:22:07.565Z,82.80
2017-11-13T19:24:35.719Z,83.30
2017-11-13T19:27:03.926Z,82.70
2017-11-13T19:29:32.128Z,83.00
2017-11-13T19:32:01.098Z,83.60
2017-11-13T19:34:29.262Z,83.50
2017-11-13T19:36:57.624Z,83.60
2017-11-13T19:39:25.751Z,83.30
2017-11-13T19:41:54.652Z,83.70
2017-11-13T19:44:22.845Z,83.60
2017-11-13T19:46:51.006Z,83.80
2017-11-13T19:49:19.185Z,83.80
2017-11-13T19:51:48.146Z,83.80
2017-11-13T19:54:17.067Z,84.00
2017-11-13T19:56:46.076Z,84.00
2017-11-13T19:59:14.226Z,84.00
2017-11-13T20:01:42.394Z,83.80
2017-11-13T20:04:10.564Z,83.70
2017-11-13T20:06:39.589Z,83.60
2017-11-13T20:09:07.954Z,83.60
2017-11-13T20:11:36.357Z,83.40
2017-11-13T20:14:05.022Z,83.60
2017-11-13T20:16:33.472Z,83.70
2017-11-13T20:19:01.920Z,83.80
2017-11-13T20:21:30.441Z,83.90
2017-11-13T20:23:58.864Z,83.70
2017-11-13T20:26:27.233Z,83.50
2017-11-13T20:28:55.704Z,83.60
2017-11-13T20:31:23.972Z,83.60
2017-11-13T20:33:52.255Z,83.20
2017-11-13T20:36:20.521Z,83.10
2017-11-13T20:38:48.728Z,83.10
2017-11-13T20:41:16.937Z,83.80
2017-11-13T20:43:45.145Z,84.10
2017-11-13T20:46:13.296Z,84.20
2017-11-13T20:48:48.581Z,84.40
2017-11-13T20:51:23.927Z,84.80
2017-11-13T20:53:59.087Z,85.00
2017-11-13T20:56:27.375Z,85.30
2017-11-13T20:58:55.580Z,86.40
2017-11-13T21:01:24.491Z,85.60
2017-11-13T21:03:52.632Z,85.60
2017-11-13T21:06:21.598Z,85.50
2017-11-13T21:08:49.764Z,85.40
2017-11-13T21:11:17.985Z,85.30
2017-11-13T21:13:46.901Z,85.60
2017-11-13T21:16:15.044Z,85.60
2017-11-13T21:18:43.234Z,85.60
2017-11-13T21:21:11.371Z,86.10
2017-11-13T21:23:40.447Z,87.20
2017-11-13T21:26:08.606Z,86.40
2017-11-13T21:28:36.763Z,86.30
2017-11-13T21:31:04.906Z,86.30
2017-11-13T21:33:33.078Z,86.40
2017-11-13T21:36:01.984Z,86.20
2017-11-13T21:38:30.271Z,86.20
2017-11-13T21:40:58.465Z,86.10
2017-11-13T21:43:26.665Z,85.70
2017-11-13T21:45:54.843Z,85.30
2017-11-13T21:48:23.068Z,85.00
2017-11-13T21:50:51.210Z,84.70
2017-11-13T21:53:20.121Z,85.00
2017-11-13T21:55:48.407Z,84.30
2017-11-13T21:58:16.658Z,84.00
2017-11-13T22:00:45.551Z,83.80
2017-11-13T22:03:13.701Z,83.80
2017-11-13T22:05:41.868Z,84.00
2017-11-13T22:08:10.027Z,83.80
2017-11-13T22:10:38.194Z,83.90
2017-11-13T22:13:06.358Z,84.00
2017-11-13T22:15:34.636Z,84.00
2017-11-13T22:18:02.805Z,84.20
2017-11-13T22:20:30.941Z,84.20
2017-11-13T22:22:59.893Z,84.00
2017-11-13T22:25:28.032Z,83.90
2017-11-13T22:27:56.350Z,84.20
2017-11-13T22:30:24.511Z,83.90
2017-11-13T22:32:52.648Z,83.50
2017-11-13T22:35:20.830Z,83.50
2017-11-13T22:37:48.955Z,83.60
2017-11-13T22:40:17.892Z,83.70
2017-11-13T22:42:46.034Z,83.70
2017-11-13T22:45:15.073Z,83.60
2017-11-13T22:47:43.241Z,83.60
2017-11-13T22:50:11.390Z,83.30
2017-11-13T22:52:39.559Z,82.80
2017-11-13T22:55:07.740Z,82.70
2017-11-13T22:57:35.861Z,82.00
2017-11-13T23:00:04.139Z,82.00
2017-11-13T23:02:32.280Z,81.80
2017-11-13T23:05:00.494Z,81.50
2017-11-13T23:07:28.632Z,81.10
2017-11-13T23:09:56.812Z,81.00
2017-11-13T23:12:24.982Z,81.00
2017-11-13T23:14:53.116Z,80.80
2017-11-13T23:17:22.010Z,80.50
2017-11-13T23:19:50.283Z,80.40
2017-11-13T23:22:19.213Z,79.40
2017-11-13T23:24:47.356Z,79.40
2017-11-13T23:27:15.497Z,79.70
2017-11-13T23:29:43.675Z,79.90
2017-11-13T23:32:11.835Z,80.00
2017-11-13T23:34:40.875Z,79.80
2017-11-13T23:37:09.011Z,79.70
2017-11-13T23:39:37.137Z,79.80
2017-11-13T23:42:05.293Z,79.80
2017-11-13T23:44:33.431Z,79.70
2017-11-13T23:47:01.596Z,79.10
2017-11-13T23:49:29.742Z,80.10
2017-11-13T23:51:58.037Z,79.50
2017-11-13T23:54:26.176Z,79.50
2017-11-13T23:56:54.305Z,79.40
2017-11-13T23:59:23.235Z,80.10
